sensor_id;sensor_type;location;lat;lon;timestamp;temperature;humidity
78438;SHT31;67736;51.978;5.656;2023-08-06T00:02:13;18.0;72.6
78438;SHT31;67736;51.978;5.656;2023-08-06T00:04:43;17.9;72.4
78438;SHT31;67736;51.978;5.656;2023-08-06T00:07:13;17.9;72.2
78438;SHT31;67736;51.978;5.656;2023-08-06T00:09:45;17.9;72.4
78438;SHT31;67736;51.978;5.656;2023-08-06T00:12:14;17.9;72.7
78438;SHT31;67736;51.978;5.656;2023-08-06T00:14:49;17.9;72.5
78438;SHT31;67736;51.978;5.656;2023-08-06T00:17:21;17.9;72.7
78438;SHT31;67736;51.978;5.656;2023-08-06T00:19:51;17.9;72.6
78438;SHT31;67736;51.978;5.656;2023-08-06T00:22:20;17.9;72.9
78438;SHT31;67736;51.978;5.656;2023-08-06T00:24:49;17.9;73.0
78438;SHT31;67736;51.978;5.656;2023-08-06T00:27:20;17.9;73.0
78438;SHT31;67736;51.978;5.656;2023-08-06T00:29:51;17.9;73.2
78438;SHT31;67736;51.978;5.656;2023-08-06T00:32:23;17.8;73.3
78438;SHT31;67736;51.978;5.656;2023-08-06T00:34:54;17.8;73.4
78438;SHT31;67736;51.978;5.656;2023-08-06T00:37:26;17.8;73.3
78438;SHT31;67736;51.978;5.656;2023-08-06T00:39:56;17.8;73.5
78438;SHT31;67736;51.978;5.656;2023-08-06T00:42:26;17.8;73.6
78438;SHT31;67736;51.978;5.656;2023-08-06T00:44:55;17.8;73.7
78438;SHT31;67736;51.978;5.656;2023-08-06T00:47:25;17.9;73.9
78438;SHT31;67736;51.978;5.656;2023-08-06T00:49:55;17.8;74.0
78438;SHT31;67736;51.978;5.656;2023-08-06T00:52:24;17.8;74.2
78438;SHT31;67736;51.978;5.656;2023-08-06T00:54:55;17.8;74.4
78438;SHT31;67736;51.978;5.656;2023-08-06T00:57:25;17.9;74.5
78438;SHT31;67736;51.978;5.656;2023-08-06T00:59:56;17.9;74.2
78438;SHT31;67736;51.978;5.656;2023-08-06T01:02:26;17.9;74.3
78438;SHT31;67736;51.978;5.656;2023-08-06T01:04:55;17.9;74.5
78438;SHT31;67736;51.978;5.656;2023-08-06T01:07:37;17.9;74.7
78438;SHT31;67736;51.978;5.656;2023-08-06T01:10:26;17.9;74.6
78438;SHT31;67736;51.978;5.656;2023-08-06T01:13:08;17.9;74.7
78438;SHT31;67736;51.978;5.656;2023-08-06T01:15:43;17.9;74.8
78438;SHT31;67736;51.978;5.656;2023-08-06T01:18:15;17.9;74.7
78438;SHT31;67736;51.978;5.656;2023-08-06T01:20:47;17.9;74.8
78438;SHT31;67736;51.978;5.656;2023-08-06T01:23:17;17.9;74.9
78438;SHT31;67736;51.978;5.656;2023-08-06T01:25:54;17.9;74.6
78438;SHT31;67736;51.978;5.656;2023-08-06T01:28:30;17.9;74.8
78438;SHT31;67736;51.978;5.656;2023-08-06T01:31:05;17.9;74.7
78438;SHT31;67736;51.978;5.656;2023-08-06T01:33:44;17.9;74.6
78438;SHT31;67736;51.978;5.656;2023-08-06T01:36:15;17.9;74.8
78438;SHT31;67736;51.978;5.656;2023-08-06T01:38:46;17.9;75.2
78438;SHT31;67736;51.978;5.656;2023-08-06T01:41:16;17.9;75.3
78438;SHT31;67736;51.978;5.656;2023-08-06T01:43:45;17.9;75.5
78438;SHT31;67736;51.978;5.656;2023-08-06T01:46:15;17.9;75.5
78438;SHT31;67736;51.978;5.656;2023-08-06T01:48:45;17.9;75.7
78438;SHT31;67736;51.978;5.656;2023-08-06T01:51:15;17.9;75.7
78438;SHT31;67736;51.978;5.656;2023-08-06T01:53:44;17.9;75.6
78438;SHT31;67736;51.978;5.656;2023-08-06T01:56:14;17.9;75.8
78438;SHT31;67736;51.978;5.656;2023-08-06T01:58:44;17.9;75.7
78438;SHT31;67736;51.978;5.656;2023-08-06T02:01:14;17.9;75.6
78438;SHT31;67736;51.978;5.656;2023-08-06T02:03:43;17.9;75.7
78438;SHT31;67736;51.978;5.656;2023-08-06T02:06:13;17.9;75.6
78438;SHT31;67736;51.978;5.656;2023-08-06T02:08:43;17.9;75.5
78438;SHT31;67736;51.978;5.656;2023-08-06T02:11:12;17.9;75.5
78438;SHT31;67736;51.978;5.656;2023-08-06T02:13:42;17.9;75.6
78438;SHT31;67736;51.978;5.656;2023-08-06T02:16:13;17.9;75.6
78438;SHT31;67736;51.978;5.656;2023-08-06T02:18:43;17.9;75.7
78438;SHT31;67736;51.978;5.656;2023-08-06T02:21:12;17.9;75.5
78438;SHT31;67736;51.978;5.656;2023-08-06T02:23:42;17.9;75.5
78438;SHT31;67736;51.978;5.656;2023-08-06T02:26:11;17.9;75.7
78438;SHT31;67736;51.978;5.656;2023-08-06T02:28:41;17.9;75.6
78438;SHT31;67736;51.978;5.656;2023-08-06T02:31:10;17.9;75.6
78438;SHT31;67736;51.978;5.656;2023-08-06T02:33:40;17.9;75.7
78438;SHT31;67736;51.978;5.656;2023-08-06T02:36:09;17.9;75.7
78438;SHT31;67736;51.978;5.656;2023-08-06T02:38:39;17.9;76.1
78438;SHT31;67736;51.978;5.656;2023-08-06T02:41:10;18.0;76.3
78438;SHT31;67736;51.978;5.656;2023-08-06T02:43:40;18.1;75.4
78438;SHT31;67736;51.978;5.656;2023-08-06T02:46:10;18.2;74.9
78438;SHT31;67736;51.978;5.656;2023-08-06T02:48:42;18.2;74.4
78438;SHT31;67736;51.978;5.656;2023-08-06T02:51:12;18.3;74.2
78438;SHT31;67736;51.978;5.656;2023-08-06T02:53:42;18.3;74.0
78438;SHT31;67736;51.978;5.656;2023-08-06T02:56:11;18.3;74.0
78438;SHT31;67736;51.978;5.656;2023-08-06T02:58:41;18.3;73.8
78438;SHT31;67736;51.978;5.656;2023-08-06T03:01:10;18.4;73.8
78438;SHT31;67736;51.978;5.656;2023-08-06T03:03:41;18.4;74.0
78438;SHT31;67736;51.978;5.656;2023-08-06T03:06:13;18.4;74.0
78438;SHT31;67736;51.978;5.656;2023-08-06T03:08:42;18.4;74.0
78438;SHT31;67736;51.978;5.656;2023-08-06T03:11:12;18.4;73.5
78438;SHT31;67736;51.978;5.656;2023-08-06T03:13:41;18.4;73.7
78438;SHT31;67736;51.978;5.656;2023-08-06T03:16:11;18.4;73.6
78438;SHT31;67736;51.978;5.656;2023-08-06T03:18:40;18.5;73.5
78438;SHT31;67736;51.978;5.656;2023-08-06T03:21:12;18.5;73.3
78438;SHT31;67736;51.978;5.656;2023-08-06T03:23:41;18.5;73.2
78438;SHT31;67736;51.978;5.656;2023-08-06T03:26:11;18.5;73.6
78438;SHT31;67736;51.978;5.656;2023-08-06T03:28:41;18.5;73.4
78438;SHT31;67736;51.978;5.656;2023-08-06T03:31:10;18.5;72.9
78438;SHT31;67736;51.978;5.656;2023-08-06T03:33:40;18.6;73.2
78438;SHT31;67736;51.978;5.656;2023-08-06T03:36:09;18.6;72.8
78438;SHT31;67736;51.978;5.656;2023-08-06T03:38:39;18.6;72.7
78438;SHT31;67736;51.978;5.656;2023-08-06T03:41:08;18.6;72.8
78438;SHT31;67736;51.978;5.656;2023-08-06T03:43:38;18.6;72.6
78438;SHT31;67736;51.978;5.656;2023-08-06T03:46:07;18.6;72.8
78438;SHT31;67736;51.978;5.656;2023-08-06T03:48:37;18.6;72.8
78438;SHT31;67736;51.978;5.656;2023-08-06T03:51:06;18.6;72.6
78438;SHT31;67736;51.978;5.656;2023-08-06T03:53:38;18.5;72.8
78438;SHT31;67736;51.978;5.656;2023-08-06T03:56:07;18.5;72.8
78438;SHT31;67736;51.978;5.656;2023-08-06T03:58:37;18.5;72.7
78438;SHT31;67736;51.978;5.656;2023-08-06T04:01:07;18.5;72.7
78438;SHT31;67736;51.978;5.656;2023-08-06T04:03:37;18.5;72.9
78438;SHT31;67736;51.978;5.656;2023-08-06T04:06:08;18.5;73.0
78438;SHT31;67736;51.978;5.656;2023-08-06T04:08:37;18.5;72.8
78438;SHT31;67736;51.978;5.656;2023-08-06T04:11:07;18.5;73.0
78438;SHT31;67736;51.978;5.656;2023-08-06T04:13:36;18.5;73.2
78438;SHT31;67736;51.978;5.656;2023-08-06T04:16:06;18.5;73.4
78438;SHT31;67736;51.978;5.656;2023-08-06T04:18:37;18.5;73.6
78438;SHT31;67736;51.978;5.656;2023-08-06T04:21:07;18.6;73.2
78438;SHT31;67736;51.978;5.656;2023-08-06T04:23:38;18.6;72.9
78438;SHT31;67736;51.978;5.656;2023-08-06T04:26:08;18.6;73.0
78438;SHT31;67736;51.978;5.656;2023-08-06T04:28:37;18.7;72.8
78438;SHT31;67736;51.978;5.656;2023-08-06T04:31:07;18.7;72.9
78438;SHT31;67736;51.978;5.656;2023-08-06T04:33:36;18.7;72.7
78438;SHT31;67736;51.978;5.656;2023-08-06T04:36:06;18.7;72.7
78438;SHT31;67736;51.978;5.656;2023-08-06T04:38:36;18.7;72.8
78438;SHT31;67736;51.978;5.656;2023-08-06T04:41:06;18.7;72.5
78438;SHT31;67736;51.978;5.656;2023-08-06T04:43:35;18.7;72.4
78438;SHT31;67736;51.978;5.656;2023-08-06T04:46:05;18.7;72.2
78438;SHT31;67736;51.978;5.656;2023-08-06T04:48:34;18.7;72.8
78438;SHT31;67736;51.978;5.656;2023-08-06T04:51:06;18.7;73.0
78438;SHT31;67736;51.978;5.656;2023-08-06T04:53:36;18.7;73.0
78438;SHT31;67736;51.978;5.656;2023-08-06T04:56:06;18.7;73.1
78438;SHT31;67736;51.978;5.656;2023-08-06T04:58:35;18.7;73.2
78438;SHT31;67736;51.978;5.656;2023-08-06T05:01:07;18.8;72.7
78438;SHT31;67736;51.978;5.656;2023-08-06T05:03:36;18.8;72.9
78438;SHT31;67736;51.978;5.656;2023-08-06T05:06:06;18.8;73.2
78438;SHT31;67736;51.978;5.656;2023-08-06T05:08:35;18.8;72.9
78438;SHT31;67736;51.978;5.656;2023-08-06T05:11:05;18.8;73.2
78438;SHT31;67736;51.978;5.656;2023-08-06T05:13:35;18.8;73.4
78438;SHT31;67736;51.978;5.656;2023-08-06T05:16:06;18.8;72.9
78438;SHT31;67736;51.978;5.656;2023-08-06T05:18:35;18.8;73.1
78438;SHT31;67736;51.978;5.656;2023-08-06T05:21:06;18.8;73.1
78438;SHT31;67736;51.978;5.656;2023-08-06T05:23:35;18.8;73.4
78438;SHT31;67736;51.978;5.656;2023-08-06T05:26:05;18.8;73.2
78438;SHT31;67736;51.978;5.656;2023-08-06T05:28:35;18.8;72.8
78438;SHT31;67736;51.978;5.656;2023-08-06T05:31:05;18.8;73.2
78438;SHT31;67736;51.978;5.656;2023-08-06T05:33:34;18.8;73.0
78438;SHT31;67736;51.978;5.656;2023-08-06T05:36:04;18.8;72.8
78438;SHT31;67736;51.978;5.656;2023-08-06T05:38:34;18.8;73.4
78438;SHT31;67736;51.978;5.656;2023-08-06T05:41:03;18.8;72.8
78438;SHT31;67736;51.978;5.656;2023-08-06T05:43:34;18.8;73.3
78438;SHT31;67736;51.978;5.656;2023-08-06T05:46:04;18.8;73.7
78438;SHT31;67736;51.978;5.656;2023-08-06T05:48:34;18.9;73.5
78438;SHT31;67736;51.978;5.656;2023-08-06T05:51:04;18.9;73.6
78438;SHT31;67736;51.978;5.656;2023-08-06T05:53:33;18.9;73.9
78438;SHT31;67736;51.978;5.656;2023-08-06T05:56:03;19.0;73.3
78438;SHT31;67736;51.978;5.656;2023-08-06T05:58:32;19.0;72.5
78438;SHT31;67736;51.978;5.656;2023-08-06T06:01:02;19.1;72.3
78438;SHT31;67736;51.978;5.656;2023-08-06T06:03:32;19.1;72.5
78438;SHT31;67736;51.978;5.656;2023-08-06T06:06:01;19.1;72.4
78438;SHT31;67736;51.978;5.656;2023-08-06T06:08:31;19.1;72.7
78438;SHT31;67736;51.978;5.656;2023-08-06T06:11:01;19.1;72.3
78438;SHT31;67736;51.978;5.656;2023-08-06T06:13:30;19.1;71.8
78438;SHT31;67736;51.978;5.656;2023-08-06T06:16:00;19.1;71.7
78438;SHT31;67736;51.978;5.656;2023-08-06T06:18:30;19.1;71.6
78438;SHT31;67736;51.978;5.656;2023-08-06T06:20:59;19.1;71.5
78438;SHT31;67736;51.978;5.656;2023-08-06T06:23:29;19.1;71.4
78438;SHT31;67736;51.978;5.656;2023-08-06T06:25:59;19.1;71.7
78438;SHT31;67736;51.978;5.656;2023-08-06T06:28:29;19.1;72.1
78438;SHT31;67736;51.978;5.656;2023-08-06T06:31:02;19.1;71.7
78438;SHT31;67736;51.978;5.656;2023-08-06T06:33:31;19.1;71.9
78438;SHT31;67736;51.978;5.656;2023-08-06T06:36:01;19.1;71.9
78438;SHT31;67736;51.978;5.656;2023-08-06T06:38:34;19.1;71.8
78438;SHT31;67736;51.978;5.656;2023-08-06T06:41:03;19.1;72.3
78438;SHT31;67736;51.978;5.656;2023-08-06T06:43:34;19.1;71.6
78438;SHT31;67736;51.978;5.656;2023-08-06T06:46:07;19.0;71.8
78438;SHT31;67736;51.978;5.656;2023-08-06T06:48:37;19.0;72.2
78438;SHT31;67736;51.978;5.656;2023-08-06T06:51:06;19.0;71.9
78438;SHT31;67736;51.978;5.656;2023-08-06T06:53:36;19.0;72.1
78438;SHT31;67736;51.978;5.656;2023-08-06T06:56:05;19.0;72.3
78438;SHT31;67736;51.978;5.656;2023-08-06T06:58:35;19.0;72.1
78438;SHT31;67736;51.978;5.656;2023-08-06T07:01:06;19.0;72.6
78438;SHT31;67736;51.978;5.656;2023-08-06T07:03:37;19.0;73.0
78438;SHT31;67736;51.978;5.656;2023-08-06T07:06:07;19.0;72.8
78438;SHT31;67736;51.978;5.656;2023-08-06T07:08:36;19.0;72.6
78438;SHT31;67736;51.978;5.656;2023-08-06T07:11:06;19.0;73.0
78438;SHT31;67736;51.978;5.656;2023-08-06T07:13:36;19.1;72.7
78438;SHT31;67736;51.978;5.656;2023-08-06T07:16:06;19.1;72.7
78438;SHT31;67736;51.978;5.656;2023-08-06T07:18:35;19.1;72.7
78438;SHT31;67736;51.978;5.656;2023-08-06T07:21:05;19.1;72.7
78438;SHT31;67736;51.978;5.656;2023-08-06T07:23:34;19.1;73.4
78438;SHT31;67736;51.978;5.656;2023-08-06T07:26:04;19.2;73.6
78438;SHT31;67736;51.978;5.656;2023-08-06T07:28:33;19.3;73.3
78438;SHT31;67736;51.978;5.656;2023-08-06T07:31:04;19.4;73.3
78438;SHT31;67736;51.978;5.656;2023-08-06T07:33:33;19.4;72.8
78438;SHT31;67736;51.978;5.656;2023-08-06T07:36:10;19.5;73.1
78438;SHT31;67736;51.978;5.656;2023-08-06T07:38:40;19.5;72.5
78438;SHT31;67736;51.978;5.656;2023-08-06T07:41:10;19.6;71.3
78438;SHT31;67736;51.978;5.656;2023-08-06T07:43:39;19.6;72.3
78438;SHT31;67736;51.978;5.656;2023-08-06T07:46:10;19.6;72.3
78438;SHT31;67736;51.978;5.656;2023-08-06T07:48:40;19.6;71.3
78438;SHT31;67736;51.978;5.656;2023-08-06T07:51:10;19.7;71.6
78438;SHT31;67736;51.978;5.656;2023-08-06T07:53:39;19.7;71.8
78438;SHT31;67736;51.978;5.656;2023-08-06T07:56:11;19.7;70.7
78438;SHT31;67736;51.978;5.656;2023-08-06T07:58:41;19.7;70.8
78438;SHT31;67736;51.978;5.656;2023-08-06T08:01:12;19.7;70.8
78438;SHT31;67736;51.978;5.656;2023-08-06T08:03:42;19.6;70.8
78438;SHT31;67736;51.978;5.656;2023-08-06T08:06:11;19.6;70.9
78438;SHT31;67736;51.978;5.656;2023-08-06T08:08:41;19.6;71.6
78438;SHT31;67736;51.978;5.656;2023-08-06T08:11:11;19.6;71.4
78438;SHT31;67736;51.978;5.656;2023-08-06T08:13:41;19.6;71.3
78438;SHT31;67736;51.978;5.656;2023-08-06T08:16:11;19.6;71.8
78438;SHT31;67736;51.978;5.656;2023-08-06T08:18:40;19.6;71.6
78438;SHT31;67736;51.978;5.656;2023-08-06T08:21:10;19.6;71.1
78438;SHT31;67736;51.978;5.656;2023-08-06T08:23:39;19.6;72.4
78438;SHT31;67736;51.978;5.656;2023-08-06T08:26:10;19.6;72.1
78438;SHT31;67736;51.978;5.656;2023-08-06T08:28:39;19.6;71.7
78438;SHT31;67736;51.978;5.656;2023-08-06T08:31:11;19.6;70.9
78438;SHT31;67736;51.978;5.656;2023-08-06T08:33:41;19.6;70.8
78438;SHT31;67736;51.978;5.656;2023-08-06T08:36:10;19.7;70.8
78438;SHT31;67736;51.978;5.656;2023-08-06T08:38:40;19.7;71.0
78438;SHT31;67736;51.978;5.656;2023-08-06T08:41:11;19.7;70.7
78438;SHT31;67736;51.978;5.656;2023-08-06T08:43:43;19.7;70.0
78438;SHT31;67736;51.978;5.656;2023-08-06T08:46:13;19.7;70.9
78438;SHT31;67736;51.978;5.656;2023-08-06T08:48:44;19.6;70.7
78438;SHT31;67736;51.978;5.656;2023-08-06T08:51:18;19.6;71.2
78438;SHT31;67736;51.978;5.656;2023-08-06T08:53:50;19.5;70.2
78438;SHT31;67736;51.978;5.656;2023-08-06T08:56:24;19.5;70.1
78438;SHT31;67736;51.978;5.656;2023-08-06T08:58:54;19.4;69.7
78438;SHT31;67736;51.978;5.656;2023-08-06T09:01:24;19.3;69.9
78438;SHT31;67736;51.978;5.656;2023-08-06T09:04:04;19.3;70.6
78438;SHT31;67736;51.978;5.656;2023-08-06T09:06:43;19.2;70.9
78438;SHT31;67736;51.978;5.656;2023-08-06T09:09:20;19.2;70.3
78438;SHT31;67736;51.978;5.656;2023-08-06T09:11:52;19.2;69.7
78438;SHT31;67736;51.978;5.656;2023-08-06T09:14:23;19.1;69.7
78438;SHT31;67736;51.978;5.656;2023-08-06T09:16:53;19.1;69.7
78438;SHT31;67736;51.978;5.656;2023-08-06T09:19:26;19.0;70.2
78438;SHT31;67736;51.978;5.656;2023-08-06T09:21:57;18.9;70.6
78438;SHT31;67736;51.978;5.656;2023-08-06T09:24:26;18.8;70.8
78438;SHT31;67736;51.978;5.656;2023-08-06T09:26:56;18.7;70.8
78438;SHT31;67736;51.978;5.656;2023-08-06T09:29:32;18.6;71.3
78438;SHT31;67736;51.978;5.656;2023-08-06T09:32:02;18.6;71.0
78438;SHT31;67736;51.978;5.656;2023-08-06T09:34:31;18.5;71.3
78438;SHT31;67736;51.978;5.656;2023-08-06T09:37:01;18.4;71.8
78438;SHT31;67736;51.978;5.656;2023-08-06T09:39:32;18.3;72.2
78438;SHT31;67736;51.978;5.656;2023-08-06T09:42:02;18.3;72.1
78438;SHT31;67736;51.978;5.656;2023-08-06T09:44:33;18.2;72.6
78438;SHT31;67736;51.978;5.656;2023-08-06T09:47:04;18.2;72.7
78438;SHT31;67736;51.978;5.656;2023-08-06T09:49:43;18.1;72.9
78438;SHT31;67736;51.978;5.656;2023-08-06T09:52:14;18.1;72.8
78438;SHT31;67736;51.978;5.656;2023-08-06T09:54:47;18.0;73.6
78438;SHT31;67736;51.978;5.656;2023-08-06T09:57:17;18.0;73.8
78438;SHT31;67736;51.978;5.656;2023-08-06T09:59:47;17.9;74.1
78438;SHT31;67736;51.978;5.656;2023-08-06T10:02:19;17.9;74.3
78438;SHT31;67736;51.978;5.656;2023-08-06T10:04:55;17.8;74.6
78438;SHT31;67736;51.978;5.656;2023-08-06T10:07:26;17.8;74.7
78438;SHT31;67736;51.978;5.656;2023-08-06T10:09:56;17.7;74.9
78438;SHT31;67736;51.978;5.656;2023-08-06T10:12:29;17.7;75.3
78438;SHT31;67736;51.978;5.656;2023-08-06T10:15:03;17.6;75.5
78438;SHT31;67736;51.978;5.656;2023-08-06T10:17:35;17.6;75.7
78438;SHT31;67736;51.978;5.656;2023-08-06T10:20:07;17.5;76.1
78438;SHT31;67736;51.978;5.656;2023-08-06T10:22:44;17.5;76.2
78438;SHT31;67736;51.978;5.656;2023-08-06T10:25:16;17.5;76.7
78438;SHT31;67736;51.978;5.656;2023-08-06T10:27:54;17.5;76.9
78438;SHT31;67736;51.978;5.656;2023-08-06T10:30:27;17.5;76.9
78438;SHT31;67736;51.978;5.656;2023-08-06T10:32:59;17.4;76.7
78438;SHT31;67736;51.978;5.656;2023-08-06T10:35:30;17.4;77.2
78438;SHT31;67736;51.978;5.656;2023-08-06T10:38:03;17.4;77.4
78438;SHT31;67736;51.978;5.656;2023-08-06T10:40:33;17.4;77.2
78438;SHT31;67736;51.978;5.656;2023-08-06T10:43:04;17.4;77.0
78438;SHT31;67736;51.978;5.656;2023-08-06T10:45:37;17.4;77.3
78438;SHT31;67736;51.978;5.656;2023-08-06T10:48:09;17.4;77.4
78438;SHT31;67736;51.978;5.656;2023-08-06T10:50:38;17.4;77.6
78438;SHT31;67736;51.978;5.656;2023-08-06T10:53:08;17.4;77.4
78438;SHT31;67736;51.978;5.656;2023-08-06T10:55:39;17.4;77.8
78438;SHT31;67736;51.978;5.656;2023-08-06T10:58:08;17.4;77.6
78438;SHT31;67736;51.978;5.656;2023-08-06T11:00:38;17.4;77.5
78438;SHT31;67736;51.978;5.656;2023-08-06T11:03:08;17.4;77.1
78438;SHT31;67736;51.978;5.656;2023-08-06T11:05:38;17.4;77.0
78438;SHT31;67736;51.978;5.656;2023-08-06T11:08:10;17.4;77.3
78438;SHT31;67736;51.978;5.656;2023-08-06T11:10:41;17.4;77.2
78438;SHT31;67736;51.978;5.656;2023-08-06T11:13:11;17.4;76.7
78438;SHT31;67736;51.978;5.656;2023-08-06T11:15:41;17.4;77.0
78438;SHT31;67736;51.978;5.656;2023-08-06T11:18:10;17.4;77.0
78438;SHT31;67736;51.978;5.656;2023-08-06T11:20:40;17.4;77.1
78438;SHT31;67736;51.978;5.656;2023-08-06T11:23:11;17.4;77.4
78438;SHT31;67736;51.978;5.656;2023-08-06T11:25:45;17.4;77.5
78438;SHT31;67736;51.978;5.656;2023-08-06T11:28:15;17.5;77.7
78438;SHT31;67736;51.978;5.656;2023-08-06T11:30:45;17.5;77.5
78438;SHT31;67736;51.978;5.656;2023-08-06T11:33:14;17.5;77.3
78438;SHT31;67736;51.978;5.656;2023-08-06T11:35:44;17.5;76.7
78438;SHT31;67736;51.978;5.656;2023-08-06T11:38:17;17.5;77.1
78438;SHT31;67736;51.978;5.656;2023-08-06T11:40:47;17.5;76.9
78438;SHT31;67736;51.978;5.656;2023-08-06T11:43:18;17.5;76.8
78438;SHT31;67736;51.978;5.656;2023-08-06T11:45:50;17.5;76.5
78438;SHT31;67736;51.978;5.656;2023-08-06T11:48:22;17.6;76.2
78438;SHT31;67736;51.978;5.656;2023-08-06T11:50:54;17.6;76.8
78438;SHT31;67736;51.978;5.656;2023-08-06T11:53:27;17.6;76.8
78438;SHT31;67736;51.978;5.656;2023-08-06T11:55:58;17.6;75.8
78438;SHT31;67736;51.978;5.656;2023-08-06T11:58:29;17.6;75.7
78438;SHT31;67736;51.978;5.656;2023-08-06T12:00:58;17.6;75.5
78438;SHT31;67736;51.978;5.656;2023-08-06T12:03:29;17.6;75.6
78438;SHT31;67736;51.978;5.656;2023-08-06T12:06:00;17.6;75.8
78438;SHT31;67736;51.978;5.656;2023-08-06T12:08:31;17.6;76.3
78438;SHT31;67736;51.978;5.656;2023-08-06T12:11:01;17.6;76.1
78438;SHT31;67736;51.978;5.656;2023-08-06T12:13:31;17.6;75.5
78438;SHT31;67736;51.978;5.656;2023-08-06T12:16:00;17.6;74.8
78438;SHT31;67736;51.978;5.656;2023-08-06T12:18:31;17.6;74.9
78438;SHT31;67736;51.978;5.656;2023-08-06T12:21:01;17.6;74.8
78438;SHT31;67736;51.978;5.656;2023-08-06T12:23:30;17.6;74.8
78438;SHT31;67736;51.978;5.656;2023-08-06T12:26:00;17.6;72.3
78438;SHT31;67736;51.978;5.656;2023-08-06T12:28:30;17.6;72.7
78438;SHT31;67736;51.978;5.656;2023-08-06T12:30:59;17.6;72.7
78438;SHT31;67736;51.978;5.656;2023-08-06T12:33:30;17.6;72.7
78438;SHT31;67736;51.978;5.656;2023-08-06T12:36:00;17.6;74.0
78438;SHT31;67736;51.978;5.656;2023-08-06T12:38:29;17.6;73.3
78438;SHT31;67736;51.978;5.656;2023-08-06T12:41:01;17.6;73.7
78438;SHT31;67736;51.978;5.656;2023-08-06T12:43:31;17.6;73.7
78438;SHT31;67736;51.978;5.656;2023-08-06T12:46:01;17.6;74.4
78438;SHT31;67736;51.978;5.656;2023-08-06T12:48:31;17.6;74.4
78438;SHT31;67736;51.978;5.656;2023-08-06T12:51:01;17.6;75.0
78438;SHT31;67736;51.978;5.656;2023-08-06T12:53:31;17.6;75.0
78438;SHT31;67736;51.978;5.656;2023-08-06T12:56:01;17.6;75.2
78438;SHT31;67736;51.978;5.656;2023-08-06T12:58:31;17.6;74.6
78438;SHT31;67736;51.978;5.656;2023-08-06T13:01:01;17.6;75.3
78438;SHT31;67736;51.978;5.656;2023-08-06T13:03:31;17.6;75.6
78438;SHT31;67736;51.978;5.656;2023-08-06T13:06:00;17.6;75.6
78438;SHT31;67736;51.978;5.656;2023-08-06T13:08:30;17.7;75.6
78438;SHT31;67736;51.978;5.656;2023-08-06T13:11:00;17.7;76.0
78438;SHT31;67736;51.978;5.656;2023-08-06T13:13:29;17.7;76.5
78438;SHT31;67736;51.978;5.656;2023-08-06T13:15:59;17.7;76.1
78438;SHT31;67736;51.978;5.656;2023-08-06T13:18:28;17.7;75.7
78438;SHT31;67736;51.978;5.656;2023-08-06T13:20:58;17.7;76.1
78438;SHT31;67736;51.978;5.656;2023-08-06T13:23:29;17.7;76.2
78438;SHT31;67736;51.978;5.656;2023-08-06T13:25:58;17.8;75.8
78438;SHT31;67736;51.978;5.656;2023-08-06T13:28:29;17.8;76.3
78438;SHT31;67736;51.978;5.656;2023-08-06T13:30:59;17.8;76.5
78438;SHT31;67736;51.978;5.656;2023-08-06T13:33:29;17.8;76.7
78438;SHT31;67736;51.978;5.656;2023-08-06T13:35:58;17.9;76.8
78438;SHT31;67736;51.978;5.656;2023-08-06T13:38:30;17.9;77.0
78438;SHT31;67736;51.978;5.656;2023-08-06T13:40:59;18.0;77.0
78438;SHT31;67736;51.978;5.656;2023-08-06T13:43:29;18.0;76.7
78438;SHT31;67736;51.978;5.656;2023-08-06T13:45:59;18.0;76.9
78438;SHT31;67736;51.978;5.656;2023-08-06T13:48:28;18.0;76.1
78438;SHT31;67736;51.978;5.656;2023-08-06T13:50:58;18.1;76.8
78438;SHT31;67736;51.978;5.656;2023-08-06T13:53:28;18.1;76.7
78438;SHT31;67736;51.978;5.656;2023-08-06T13:55:57;18.1;76.7
78438;SHT31;67736;51.978;5.656;2023-08-06T13:58:27;18.1;76.6
78438;SHT31;67736;51.978;5.656;2023-08-06T14:00:56;18.2;76.9
78438;SHT31;67736;51.978;5.656;2023-08-06T14:03:26;18.2;76.7
78438;SHT31;67736;51.978;5.656;2023-08-06T14:05:56;18.2;76.6
78438;SHT31;67736;51.978;5.656;2023-08-06T14:08:29;18.2;77.0
78438;SHT31;67736;51.978;5.656;2023-08-06T14:10:58;18.3;77.1
78438;SHT31;67736;51.978;5.656;2023-08-06T14:13:30;18.3;76.6
78438;SHT31;67736;51.978;5.656;2023-08-06T14:15:59;18.3;76.4
78438;SHT31;67736;51.978;5.656;2023-08-06T14:18:29;18.3;76.5
78438;SHT31;67736;51.978;5.656;2023-08-06T14:20:58;18.3;76.1
78438;SHT31;67736;51.978;5.656;2023-08-06T14:23:28;18.4;75.8
78438;SHT31;67736;51.978;5.656;2023-08-06T14:26:00;18.4;76.1
78438;SHT31;67736;51.978;5.656;2023-08-06T14:28:30;18.4;75.9
78438;SHT31;67736;51.978;5.656;2023-08-06T14:30:59;18.4;76.0
78438;SHT31;67736;51.978;5.656;2023-08-06T14:33:29;18.4;75.9
78438;SHT31;67736;51.978;5.656;2023-08-06T14:35:58;18.4;76.1
78438;SHT31;67736;51.978;5.656;2023-08-06T14:38:29;18.4;76.3
78438;SHT31;67736;51.978;5.656;2023-08-06T14:40:58;18.4;76.6
78438;SHT31;67736;51.978;5.656;2023-08-06T14:43:29;18.5;76.2
78438;SHT31;67736;51.978;5.656;2023-08-06T14:45:58;18.5;75.8
78438;SHT31;67736;51.978;5.656;2023-08-06T14:48:28;18.5;76.2
78438;SHT31;67736;51.978;5.656;2023-08-06T14:50:57;18.5;76.4
78438;SHT31;67736;51.978;5.656;2023-08-06T14:53:27;18.5;76.0
78438;SHT31;67736;51.978;5.656;2023-08-06T14:55:56;18.5;76.1
78438;SHT31;67736;51.978;5.656;2023-08-06T14:58:27;18.5;76.0
78438;SHT31;67736;51.978;5.656;2023-08-06T15:00:56;18.5;75.8
78438;SHT31;67736;51.978;5.656;2023-08-06T15:03:26;18.5;76.2
78438;SHT31;67736;51.978;5.656;2023-08-06T15:05:55;18.5;76.1
78438;SHT31;67736;51.978;5.656;2023-08-06T15:08:26;18.5;76.0
78438;SHT31;67736;51.978;5.656;2023-08-06T15:10:56;18.5;75.9
78438;SHT31;67736;51.978;5.656;2023-08-06T15:13:28;18.5;76.4
78438;SHT31;67736;51.978;5.656;2023-08-06T15:15:58;18.5;75.7
78438;SHT31;67736;51.978;5.656;2023-08-06T15:18:28;18.5;75.3
78438;SHT31;67736;51.978;5.656;2023-08-06T15:20:57;18.5;75.6
78438;SHT31;67736;51.978;5.656;2023-08-06T15:23:27;18.5;75.6
78438;SHT31;67736;51.978;5.656;2023-08-06T15:25:56;18.4;76.1
78438;SHT31;67736;51.978;5.656;2023-08-06T15:28:26;18.4;76.0
78438;SHT31;67736;51.978;5.656;2023-08-06T15:30:55;18.4;75.5
78438;SHT31;67736;51.978;5.656;2023-08-06T15:33:25;18.4;75.6
78438;SHT31;67736;51.978;5.656;2023-08-06T15:35:56;18.4;75.7
78438;SHT31;67736;51.978;5.656;2023-08-06T15:38:26;18.4;75.9
78438;SHT31;67736;51.978;5.656;2023-08-06T15:40:56;18.4;75.4
78438;SHT31;67736;51.978;5.656;2023-08-06T15:43:25;18.4;75.7
78438;SHT31;67736;51.978;5.656;2023-08-06T15:45:56;18.4;75.3
78438;SHT31;67736;51.978;5.656;2023-08-06T15:48:26;18.4;75.1
78438;SHT31;67736;51.978;5.656;2023-08-06T15:50:57;18.4;75.0
78438;SHT31;67736;51.978;5.656;2023-08-06T15:53:27;18.3;74.6
78438;SHT31;67736;51.978;5.656;2023-08-06T15:55:57;18.3;74.9
78438;SHT31;67736;51.978;5.656;2023-08-06T15:58:26;18.3;75.0
78438;SHT31;67736;51.978;5.656;2023-08-06T16:00:56;18.3;75.1
78438;SHT31;67736;51.978;5.656;2023-08-06T16:03:25;18.3;74.9
78438;SHT31;67736;51.978;5.656;2023-08-06T16:05:56;18.2;74.5
78438;SHT31;67736;51.978;5.656;2023-08-06T16:08:25;18.2;74.6
78438;SHT31;67736;51.978;5.656;2023-08-06T16:10:56;18.2;73.8
78438;SHT31;67736;51.978;5.656;2023-08-06T16:13:26;18.2;73.4
78438;SHT31;67736;51.978;5.656;2023-08-06T16:15:55;18.2;73.1
78438;SHT31;67736;51.978;5.656;2023-08-06T16:18:25;18.1;72.9
78438;SHT31;67736;51.978;5.656;2023-08-06T16:20:55;18.1;73.2
78438;SHT31;67736;51.978;5.656;2023-08-06T16:23:25;18.1;72.9